sensor_id;sensor_type;location;lat;lon;timestamp;pressure;altitude;pressure_sealevel;temperature;humidity
7180;BME280;3631;42.152;24.756;2023-12-20T00:00:21;86720.66;;;-144.30;100.00
7180;BME280;3631;42.152;24.756;2023-12-20T00:02:48;86710.72;;;-144.30;100.00
7180;BME280;3631;42.152;24.756;2023-12-20T00:05:14;86716.69;;;-144.30;100.00
7180;BME280;3631;42.152;24.756;2023-12-20T00:07:43;86716.69;;;-144.30;100.00
7180;BME280;3631;42.152;24.756;2023-12-20T00:10:10;86732.59;;;-144.30;100.00
7180;BME280;3631;42.152;24.756;2023-12-20T00:12:38;86680.88;;;-144.30;100.00
7180;BME280;3631;42.152;24.756;2023-12-20T00:15:06;86766.41;;;-144.30;100.00
7180;BME280;3631;42.152;24.756;2023-12-20T00:17:33;86746.50;;;-144.30;100.00
7180;BME280;3631;42.152;24.756;2023-12-20T00:20:00;86736.56;;;-144.30;100.00
7180;BME280;3631;42.152;24.756;2023-12-20T00:22:27;86748.50;;;-144.30;100.00
7180;BME280;3631;42.152;24.756;2023-12-20T00:24:55;86746.50;;;-144.30;100.00
7180;BME280;3631;42.152;24.756;2023-12-20T00:27:22;86732.59;;;-144.30;100.00
7180;BME280;3631;42.152;24.756;2023-12-20T00:29:49;86748.50;;;-144.30;100.00
7180;BME280;3631;42.152;24.756;2023-12-20T00:32:16;86730.59;;;-144.30;100.00
7180;BME280;3631;42.152;24.756;2023-12-20T00:34:43;86738.56;;;-144.30;100.00
7180;BME280;3631;42.152;24.756;2023-12-20T00:37:10;86746.50;;;-144.30;100.00
7180;BME280;3631;42.152;24.756;2023-12-20T00:39:37;86740.53;;;-144.30;100.00
7180;BME280;3631;42.152;24.756;2023-12-20T00:42:06;86708.72;;;-144.30;100.00
7180;BME280;3631;42.152;24.756;2023-12-20T00:44:33;86724.63;;;-144.30;100.00
7180;BME280;3631;42.152;24.756;2023-12-20T00:47:00;86748.50;;;-144.30;100.00
7180;BME280;3631;42.152;24.756;2023-12-20T00:49:27;86744.53;;;-144.30;100.00
7180;BME280;3631;42.152;24.756;2023-12-20T00:51:54;86742.53;;;-144.30;100.00
7180;BME280;3631;42.152;24.756;2023-12-20T00:54:21;86742.53;;;-144.30;100.00
7180;BME280;3631;42.152;24.756;2023-12-20T00:56:47;86728.59;;;-144.30;100.00
7180;BME280;3631;42.152;24.756;2023-12-20T00:59:16;86752.47;;;-144.30;100.00
7180;BME280;3631;42.152;24.756;2023-12-20T01:01:43;86720.66;;;-144.30;100.00
7180;BME280;3631;42.152;24.756;2023-12-20T01:04:10;86732.59;;;-144.30;100.00
7180;BME280;3631;42.152;24.756;2023-12-20T01:06:37;86762.41;;;-144.30;100.00
7180;BME280;3631;42.152;24.756;2023-12-20T01:09:04;86740.53;;;-144.30;100.00
7180;BME280;3631;42.152;24.756;2023-12-20T01:11:31;86720.66;;;-144.30;100.00
7180;BME280;3631;42.152;24.756;2023-12-20T01:13:58;86716.69;;;-144.30;100.00
7180;BME280;3631;42.152;24.756;2023-12-20T01:16:26;86736.56;;;-144.30;100.00
7180;BME280;3631;42.152;24.756;2023-12-20T01:18:53;86710.72;;;-144.30;100.00
7180;BME280;3631;42.152;24.756;2023-12-20T01:21:20;86724.63;;;-144.30;100.00
7180;BME280;3631;42.152;24.756;2023-12-20T01:23:47;86744.53;;;-144.30;100.00
7180;BME280;3631;42.152;24.756;2023-12-20T01:26:15;86702.75;;;-144.30;100.00
7180;BME280;3631;42.152;24.756;2023-12-20T01:28:42;86750.50;;;-144.30;100.00
7180;BME280;3631;42.152;24.756;2023-12-20T01:31:09;86724.63;;;-144.30;100.00
7180;BME280;3631;42.152;24.756;2023-12-20T01:33:37;86734.56;;;-144.30;100.00
7180;BME280;3631;42.152;24.756;2023-12-20T01:36:04;86748.50;;;-144.30;100.00
7180;BME280;3631;42.152;24.756;2023-12-20T01:38:31;86734.56;;;-144.30;100.00
7180;BME280;3631;42.152;24.756;2023-12-20T01:40:58;86782.31;;;-144.30;100.00
7180;BME280;3631;42.152;24.756;2023-12-20T01:43:25;86710.72;;;-144.30;100.00
7180;BME280;3631;42.152;24.756;2023-12-20T01:45:52;86784.28;;;-144.30;100.00
7180;BME280;3631;42.152;24.756;2023-12-20T01:48:19;86760.44;;;-144.30;100.00
7180;BME280;3631;42.152;24.756;2023-12-20T01:50:48;86766.41;;;-144.30;100.00
7180;BME280;3631;42.152;24.756;2023-12-20T01:53:15;86778.31;;;-144.30;100.00
7180;BME280;3631;42.152;24.756;2023-12-20T01:55:43;86780.31;;;-144.30;100.00
7180;BME280;3631;42.152;24.756;2023-12-20T01:58:12;86744.53;;;-144.30;100.00
7180;BME280;3631;42.152;24.756;2023-12-20T02:00:39;86754.47;;;-144.30;100.00
7180;BME280;3631;42.152;24.756;2023-12-20T02:03:06;86720.66;;;-144.30;100.00
7180;BME280;3631;42.152;24.756;2023-12-20T02:05:35;86724.63;;;-144.30;100.00
7180;BME280;3631;42.152;24.756;2023-12-20T02:08:04;86776.34;;;-144.30;100.00
7180;BME280;3631;42.152;24.756;2023-12-20T02:10:31;86617.25;;;-144.30;100.00
7180;BME280;3631;42.152;24.756;2023-12-20T02:12:58;86788.28;;;-144.30;100.00
7180;BME280;3631;42.152;24.756;2023-12-20T02:15:25;86792.25;;;-144.30;100.00
7180;BME280;3631;42.152;24.756;2023-12-20T02:17:52;86780.31;;;-144.30;100.00
7180;BME280;3631;42.152;24.756;2023-12-20T02:20:20;86776.34;;;-144.30;100.00
7180;BME280;3631;42.152;24.756;2023-12-20T02:22:48;86780.31;;;-144.30;100.00
7180;BME280;3631;42.152;24.756;2023-12-20T02:25:15;86758.44;;;-144.30;100.00
7180;BME280;3631;42.152;24.756;2023-12-20T02:27:42;86780.31;;;-144.30;100.00
7180;BME280;3631;42.152;24.756;2023-12-20T02:30:10;86770.38;;;-144.30;100.00
7180;BME280;3631;42.152;24.756;2023-12-20T02:32:37;86756.44;;;-144.30;100.00
7180;BME280;3631;42.152;24.756;2023-12-20T02:35:04;86788.28;;;-144.30;100.00
7180;BME280;3631;42.152;24.756;2023-12-20T02:37:32;86776.34;;;-144.30;100.00
7180;BME280;3631;42.152;24.756;2023-12-20T02:40:01;86748.50;;;-144.30;100.00
7180;BME280;3631;42.152;24.756;2023-12-20T02:42:28;86766.41;;;-144.30;100.00
7180;BME280;3631;42.152;24.756;2023-12-20T02:44:55;86786.28;;;-144.30;100.00
7180;BME280;3631;42.152;24.756;2023-12-20T02:47:22;86796.22;;;-144.30;100.00
7180;BME280;3631;42.152;24.756;2023-12-20T02:49:49;86776.34;;;-144.30;100.00
7180;BME280;3631;42.152;24.756;2023-12-20T02:52:16;86778.31;;;-144.30;100.00
7180;BME280;3631;42.152;24.756;2023-12-20T02:54:43;86792.25;;;-144.30;100.00
7180;BME280;3631;42.152;24.756;2023-12-20T02:57:12;86708.72;;;-144.30;100.00
7180;BME280;3631;42.152;24.756;2023-12-20T02:59:38;86788.28;;;-144.30;100.00
7180;BME280;3631;42.152;24.756;2023-12-20T03:02:05;86734.56;;;-144.30;100.00
7180;BME280;3631;42.152;24.756;2023-12-20T03:04:32;86784.28;;;-144.30;100.00
7180;BME280;3631;42.152;24.756;2023-12-20T03:06:59;86780.31;;;-144.30;100.00
7180;BME280;3631;42.152;24.756;2023-12-20T03:09:26;86780.31;;;-144.30;100.00
7180;BME280;3631;42.152;24.756;2023-12-20T03:11:53;86796.22;;;-144.30;100.00
7180;BME280;3631;42.152;24.756;2023-12-20T03:14:21;86664.97;;;-144.30;100.00
7180;BME280;3631;42.152;24.756;2023-12-20T03:16:49;86746.50;;;-144.30;100.00
7180;BME280;3631;42.152;24.756;2023-12-20T03:19:17;86778.31;;;-144.30;100.00
7180;BME280;3631;42.152;24.756;2023-12-20T03:21:44;86792.25;;;-144.30;100.00
7180;BME280;3631;42.152;24.756;2023-12-20T03:24:11;86752.47;;;-144.30;100.00
7180;BME280;3631;42.152;24.756;2023-12-20T03:26:38;86768.38;;;-144.30;100.00
7180;BME280;3631;42.152;24.756;2023-12-20T03:29:04;86762.41;;;-144.30;100.00
7180;BME280;3631;42.152;24.756;2023-12-20T03:31:33;86776.34;;;-144.30;100.00
7180;BME280;3631;42.152;24.756;2023-12-20T03:34:00;86804.19;;;-144.30;100.00
7180;BME280;3631;42.152;24.756;2023-12-20T03:36:26;86784.28;;;-144.30;100.00
7180;BME280;3631;42.152;24.756;2023-12-20T03:38:53;86784.28;;;-144.30;100.00
7180;BME280;3631;42.152;24.756;2023-12-20T03:41:20;86806.16;;;-144.30;100.00
7180;BME280;3631;42.152;24.756;2023-12-20T03:43:47;86780.31;;;-144.30;100.00
7180;BME280;3631;42.152;24.756;2023-12-20T03:46:14;86822.09;;;-144.30;100.00
7180;BME280;3631;42.152;24.756;2023-12-20T03:48:42;86774.34;;;-144.30;100.00
7180;BME280;3631;42.152;24.756;2023-12-20T03:51:09;86788.28;;;-144.30;100.00
7180;BME280;3631;42.152;24.756;2023-12-20T03:53:36;86786.28;;;-144.30;100.00
7180;BME280;3631;42.152;24.756;2023-12-20T03:56:03;86782.31;;;-144.30;100.00
7180;BME280;3631;42.152;24.756;2023-12-20T03:58:30;86778.31;;;-144.30;100.00
7180;BME280;3631;42.152;24.756;2023-12-20T04:00:57;86760.44;;;-144.30;100.00
7180;BME280;3631;42.152;24.756;2023-12-20T04:03:24;86756.44;;;-144.30;100.00
7180;BME280;3631;42.152;24.756;2023-12-20T04:05:52;86802.19;;;-144.30;100.00
7180;BME280;3631;42.152;24.756;2023-12-20T04:08:20;86792.25;;;-144.30;100.00
7180;BME280;3631;42.152;24.756;2023-12-20T04:10:47;86784.28;;;-144.30;100.00
7180;BME280;3631;42.152;24.756;2023-12-20T04:13:14;86780.31;;;-144.30;100.00
7180;BME280;3631;42.152;24.756;2023-12-20T04:15:40;86774.34;;;-144.30;100.00
7180;BME280;3631;42.152;24.756;2023-12-20T04:18:08;86780.31;;;-144.30;100.00
7180;BME280;3631;42.152;24.756;2023-12-20T04:20:35;86778.31;;;-144.30;100.00
7180;BME280;3631;42.152;24.756;2023-12-20T04:23:04;86788.28;;;-144.30;100.00
7180;BME280;3631;42.152;24.756;2023-12-20T04:25:30;86800.19;;;-144.30;100.00
7180;BME280;3631;42.152;24.756;2023-12-20T04:27:57;86726.63;;;-144.30;100.00
7180;BME280;3631;42.152;24.756;2023-12-20T04:30:24;86762.41;;;-144.30;100.00
7180;BME280;3631;42.152;24.756;2023-12-20T04:32:51;86776.34;;;-144.30;100.00
7180;BME280;3631;42.152;24.756;2023-12-20T04:35:18;86808.16;;;-144.30;100.00
7180;BME280;3631;42.152;24.756;2023-12-20T04:37:45;86782.31;;;-144.30;100.00
7180;BME280;3631;42.152;24.756;2023-12-20T04:40:14;86810.16;;;-144.30;100.00
7180;BME280;3631;42.152;24.756;2023-12-20T04:42:40;86979.19;;;-144.30;100.00
7180;BME280;3631;42.152;24.756;2023-12-20T04:45:08;86808.16;;;-144.30;100.00
7180;BME280;3631;42.152;24.756;2023-12-20T04:47:35;86748.50;;;-144.30;100.00
7180;BME280;3631;42.152;24.756;2023-12-20T04:50:03;86772.34;;;-144.30;100.00
7180;BME280;3631;42.152;24.756;2023-12-20T04:52:30;86778.31;;;-144.30;100.00
7180;BME280;3631;42.152;24.756;2023-12-20T04:54:56;86804.19;;;-144.30;100.00
7180;BME280;3631;42.152;24.756;2023-12-20T04:57:26;86800.19;;;-144.30;100.00
7180;BME280;3631;42.152;24.756;2023-12-20T04:59:55;86808.16;;;-144.30;100.00
7180;BME280;3631;42.152;24.756;2023-12-20T05:02:23;86768.38;;;-144.30;100.00
7180;BME280;3631;42.152;24.756;2023-12-20T05:04:49;86784.28;;;-144.30;100.00
7180;BME280;3631;42.152;24.756;2023-12-20T05:07:16;86812.13;;;-144.30;100.00
7180;BME280;3631;42.152;24.756;2023-12-20T05:09:43;86768.38;;;-144.30;100.00
7180;BME280;3631;42.152;24.756;2023-12-20T05:12:10;86768.38;;;-144.30;100.00
7180;BME280;3631;42.152;24.756;2023-12-20T05:14:38;86760.44;;;-144.30;100.00
7180;BME280;3631;42.152;24.756;2023-12-20T05:17:05;86772.34;;;-144.30;100.00
7180;BME280;3631;42.152;24.756;2023-12-20T05:19:32;86812.13;;;-144.30;100.00
7180;BME280;3631;42.152;24.756;2023-12-20T05:22:00;86802.19;;;-144.30;100.00
7180;BME280;3631;42.152;24.756;2023-12-20T05:24:27;86814.13;;;-144.30;100.00
7180;BME280;3631;42.152;24.756;2023-12-20T05:26:54;86756.44;;;-144.30;100.00
7180;BME280;3631;42.152;24.756;2023-12-20T05:29:21;86776.34;;;-144.30;100.00
7180;BME280;3631;42.152;24.756;2023-12-20T05:31:49;86814.13;;;-144.30;100.00
7180;BME280;3631;42.152;24.756;2023-12-20T05:34:16;86816.13;;;-144.30;100.00
7180;BME280;3631;42.152;24.756;2023-12-20T05:36:43;86768.38;;;-144.30;100.00
7180;BME280;3631;42.152;24.756;2023-12-20T05:39:10;86800.19;;;-144.30;100.00
7180;BME280;3631;42.152;24.756;2023-12-20T05:41:37;86780.31;;;-144.30;100.00
7180;BME280;3631;42.152;24.756;2023-12-20T05:44:04;86790.25;;;-144.30;100.00
7180;BME280;3631;42.152;24.756;2023-12-20T05:46:31;86816.13;;;-144.30;100.00
7180;BME280;3631;42.152;24.756;2023-12-20T05:48:59;86784.28;;;-144.30;100.00
7180;BME280;3631;42.152;24.756;2023-12-20T05:51:27;86796.22;;;-144.30;100.00
7180;BME280;3631;42.152;24.756;2023-12-20T05:53:54;86760.44;;;-144.30;100.00
7180;BME280;3631;42.152;24.756;2023-12-20T05:56:21;86790.25;;;-144.30;100.00
7180;BME280;3631;42.152;24.756;2023-12-20T05:58:48;86788.28;;;-144.30;100.00
7180;BME280;3631;42.152;24.756;2023-12-20T06:01:15;86768.38;;;-144.30;100.00
7180;BME280;3631;42.152;24.756;2023-12-20T06:03:43;86802.19;;;-144.30;100.00
7180;BME280;3631;42.152;24.756;2023-12-20T06:06:12;86774.34;;;-144.30;100.00
7180;BME280;3631;42.152;24.756;2023-12-20T06:08:40;86756.44;;;-144.30;99.73
7180;BME280;3631;42.152;24.756;2023-12-20T06:11:08;86730.59;;;-144.30;99.49
7180;BME280;3631;42.152;24.756;2023-12-20T06:13:35;86758.44;;;-144.30;99.72
7180;BME280;3631;42.152;24.756;2023-12-20T06:16:05;86736.56;;;-144.30;99.14
7180;BME280;3631;42.152;24.756;2023-12-20T06:18:32;86778.31;;;-144.30;99.07
7180;BME280;3631;42.152;24.756;2023-12-20T06:20:59;86792.25;;;-144.30;99.37
7180;BME280;3631;42.152;24.756;2023-12-20T06:23:28;86756.44;;;-144.30;99.51
7180;BME280;3631;42.152;24.756;2023-12-20T06:25:55;86776.34;;;-144.30;99.34
7180;BME280;3631;42.152;24.756;2023-12-20T06:28:22;86772.34;;;-144.30;99.52
7180;BME280;3631;42.152;24.756;2023-12-20T06:30:49;86800.19;;;-144.30;99.43
7180;BME280;3631;42.152;24.756;2023-12-20T06:33:17;86768.38;;;-144.30;99.08
7180;BME280;3631;42.152;24.756;2023-12-20T06:35:46;86804.19;;;-144.30;98.97
7180;BME280;3631;42.152;24.756;2023-12-20T06:38:13;86780.31;;;-144.30;99.22
7180;BME280;3631;42.152;24.756;2023-12-20T06:40:42;86734.56;;;-144.30;99.32
7180;BME280;3631;42.152;24.756;2023-12-20T06:43:09;86784.28;;;-144.30;99.20
7180;BME280;3631;42.152;24.756;2023-12-20T06:45:36;86790.25;;;-144.30;99.32
7180;BME280;3631;42.152;24.756;2023-12-20T06:48:03;86778.31;;;-144.30;98.76
7180;BME280;3631;42.152;24.756;2023-12-20T06:50:30;86764.41;;;-144.30;98.85
7180;BME280;3631;42.152;24.756;2023-12-20T06:52:57;86776.34;;;-144.30;98.94
7180;BME280;3631;42.152;24.756;2023-12-20T06:55:24;86760.44;;;-144.30;98.61
7180;BME280;3631;42.152;24.756;2023-12-20T06:57:52;86756.44;;;-144.30;98.34
7180;BME280;3631;42.152;24.756;2023-12-20T07:00:20;86758.44;;;-144.30;98.62
7180;BME280;3631;42.152;24.756;2023-12-20T07:02:47;86772.34;;;-144.30;98.77
7180;BME280;3631;42.152;24.756;2023-12-20T07:05:16;86756.44;;;-144.30;98.47
7180;BME280;3631;42.152;24.756;2023-12-20T07:07:46;86744.53;;;-144.30;98.55
7180;BME280;3631;42.152;24.756;2023-12-20T07:10:13;86748.50;;;-144.30;98.37
7180;BME280;3631;42.152;24.756;2023-12-20T07:12:40;86776.34;;;-144.30;98.47
7180;BME280;3631;42.152;24.756;2023-12-20T07:15:09;86748.50;;;-144.30;98.72
7180;BME280;3631;42.152;24.756;2023-12-20T07:17:36;86720.66;;;-144.30;98.69
7180;BME280;3631;42.152;24.756;2023-12-20T07:20:04;86780.31;;;-144.30;98.50
7180;BME280;3631;42.152;24.756;2023-12-20T07:22:35;86746.50;;;-144.30;98.01
7180;BME280;3631;42.152;24.756;2023-12-20T07:25:02;86939.41;;;-144.30;97.87
7180;BME280;3631;42.152;24.756;2023-12-20T07:27:29;86762.41;;;-144.30;97.82
7180;BME280;3631;42.152;24.756;2023-12-20T07:29:56;86742.53;;;-144.30;97.72
7180;BME280;3631;42.152;24.756;2023-12-20T07:32:24;86680.88;;;-144.30;98.08
7180;BME280;3631;42.152;24.756;2023-12-20T07:34:51;86760.44;;;-144.30;97.48
7180;BME280;3631;42.152;24.756;2023-12-20T07:37:19;86748.50;;;-144.30;97.00
7180;BME280;3631;42.152;24.756;2023-12-20T07:39:46;86724.63;;;-144.30;96.88
7180;BME280;3631;42.152;24.756;2023-12-20T07:42:13;87359.09;;;-144.30;96.67
7180;BME280;3631;42.152;24.756;2023-12-20T07:44:40;86688.84;;;-144.30;97.01
7180;BME280;3631;42.152;24.756;2023-12-20T07:47:07;86728.59;;;-144.30;96.60
7180;BME280;3631;42.152;24.756;2023-12-20T07:49:36;86724.63;;;-144.30;96.73
7180;BME280;3631;42.152;24.756;2023-12-20T07:52:03;86720.66;;;-144.30;96.14
7180;BME280;3631;42.152;24.756;2023-12-20T07:54:30;86676.91;;;-144.30;96.05
7180;BME280;3631;42.152;24.756;2023-12-20T07:56:57;86664.97;;;-144.30;95.96
7180;BME280;3631;42.152;24.756;2023-12-20T07:59:24;86714.69;;;-144.30;95.68
7180;BME280;3631;42.152;24.756;2023-12-20T08:01:51;86712.69;;;-144.30;95.01
7180;BME280;3631;42.152;24.756;2023-12-20T08:04:18;86684.84;;;-144.30;93.83
7180;BME280;3631;42.152;24.756;2023-12-20T08:06:46;86680.88;;;-144.30;94.09
7180;BME280;3631;42.152;24.756;2023-12-20T08:09:13;86684.84;;;-144.30;93.36
7180;BME280;3631;42.152;24.756;2023-12-20T08:11:44;86696.78;;;-144.30;93.18
7180;BME280;3631;42.152;24.756;2023-12-20T08:14:11;86692.81;;;-144.30;92.81
7180;BME280;3631;42.152;24.756;2023-12-20T08:16:38;86694.81;;;-144.30;92.51
7180;BME280;3631;42.152;24.756;2023-12-20T08:19:05;86692.81;;;-144.30;92.28
7180;BME280;3631;42.152;24.756;2023-12-20T08:21:33;86692.81;;;-144.30;92.85
7180;BME280;3631;42.152;24.756;2023-12-20T08:24:01;86543.66;;;-144.30;92.23
7180;BME280;3631;42.152;24.756;2023-12-20T08:26:28;86668.94;;;-144.30;91.97
7180;BME280;3631;42.152;24.756;2023-12-20T08:28:55;86664.97;;;-144.30;92.09
7180;BME280;3631;42.152;24.756;2023-12-20T08:31:22;86645.09;;;-144.30;91.94
7180;BME280;3631;42.152;24.756;2023-12-20T08:33:49;86668.94;;;-144.30;92.30
7180;BME280;3631;42.152;24.756;2023-12-20T08:36:16;86629.19;;;-144.30;92.42
7180;BME280;3631;42.152;24.756;2023-12-20T08:38:43;86659.00;;;-144.30;92.82
7180;BME280;3631;42.152;24.756;2023-12-20T08:41:12;86661.00;;;-144.30;92.30
7180;BME280;3631;42.152;24.756;2023-12-20T08:43:39;86662.97;;;-144.30;91.87
7180;BME280;3631;42.152;24.756;2023-12-20T08:46:08;86662.97;;;-144.30;91.87
7180;BME280;3631;42.152;24.756;2023-12-20T08:48:36;86647.06;;;-144.30;91.47
7180;BME280;3631;42.152;24.756;2023-12-20T08:51:03;86662.97;;;-144.30;91.37
7180;BME280;3631;42.152;24.756;2023-12-20T08:53:32;86621.22;;;-144.30;90.93
7180;BME280;3631;42.152;24.756;2023-12-20T08:56:00;86641.09;;;-144.30;90.68
7180;BME280;3631;42.152;24.756;2023-12-20T08:58:28;86623.22;;;-144.30;90.96
7180;BME280;3631;42.152;24.756;2023-12-20T09:00:55;86631.16;;;-144.30;90.46
7180;BME280;3631;42.152;24.756;2023-12-20T09:03:23;86591.38;;;-144.30;90.10
7180;BME280;3631;42.152;24.756;2023-12-20T09:05:50;86601.34;;;-144.30;90.46
7180;BME280;3631;42.152;24.756;2023-12-20T09:08:17;86597.34;;;-144.30;89.62
7180;BME280;3631;42.152;24.756;2023-12-20T09:10:43;86581.44;;;-144.30;89.37
7180;BME280;3631;42.152;24.756;2023-12-20T09:13:11;86589.41;;;-144.30;89.30
7180;BME280;3631;42.152;24.756;2023-12-20T09:15:39;86565.53;;;-144.30;89.62
7180;BME280;3631;42.152;24.756;2023-12-20T09:18:06;86565.53;;;-144.30;88.64
7180;BME280;3631;42.152;24.756;2023-12-20T09:20:33;86523.78;;;-144.30;88.59
7180;BME280;3631;42.152;24.756;2023-12-20T09:23:00;86571.50;;;-144.30;88.07
7180;BME280;3631;42.152;24.756;2023-12-20T09:25:28;86565.53;;;-144.30;87.63
7180;BME280;3631;42.152;24.756;2023-12-20T09:27:55;86541.69;;;-144.30;87.03
7180;BME280;3631;42.152;24.756;2023-12-20T09:30:22;86585.44;;;-144.30;87.02
7180;BME280;3631;42.152;24.756;2023-12-20T09:32:50;86573.50;;;-144.30;87.24
7180;BME280;3631;42.152;24.756;2023-12-20T09:35:17;86474.06;;;-144.30;87.63
7180;BME280;3631;42.152;24.756;2023-12-20T09:37:44;86593.38;;;-144.30;87.49
7180;BME280;3631;42.152;24.756;2023-12-20T09:40:13;86553.59;;;-144.30;87.33
7180;BME280;3631;42.152;24.756;2023-12-20T09:42:47;86585.44;;;-144.30;87.29
7180;BME280;3631;42.152;24.756;2023-12-20T09:45:19;86589.41;;;-144.30;87.50
7180;BME280;3631;42.152;24.756;2023-12-20T09:47:47;86567.53;;;-144.30;87.49
7180;BME280;3631;42.152;24.756;2023-12-20T09:50:18;86573.50;;;-144.30;87.65
7180;BME280;3631;42.152;24.756;2023-12-20T09:52:49;86553.59;;;-144.30;87.60
7180;BME280;3631;42.152;24.756;2023-12-20T09:55:17;86547.66;;;-144.30;85.31
7180;BME280;3631;42.152;24.756;2023-12-20T09:57:45;86567.53;;;-144.30;84.43
7180;BME280;3631;42.152;24.756;2023-12-20T10:00:13;86571.50;;;-144.30;82.32
7180;BME280;3631;42.152;24.756;2023-12-20T10:02:48;86619.22;;;-144.30;81.30
7180;BME280;3631;42.152;24.756;2023-12-20T10:05:26;86567.53;;;-144.30;80.46
7180;BME280;3631;42.152;24.756;2023-12-20T10:08:05;86565.53;;;-144.30;80.20
7180;BME280;3631;42.152;24.756;2023-12-20T10:10:34;86517.81;;;-144.30;79.42
7180;BME280;3631;42.152;24.756;2023-12-20T10:13:11;86553.59;;;-144.30;78.87
7180;BME280;3631;42.152;24.756;2023-12-20T10:15:44;86476.06;;;-144.30;78.46
7180;BME280;3631;42.152;24.756;2023-12-20T10:18:13;86559.56;;;-144.30;77.95
7180;BME280;3631;42.152;24.756;2023-12-20T10:20:48;86535.72;;;-144.30;77.39
7180;BME280;3631;42.152;24.756;2023-12-20T10:23:17;86404.47;;;-144.30;76.37
7180;BME280;3631;42.152;24.756;2023-12-20T10:25:56;86513.84;;;-144.30;76.15
7180;BME280;3631;42.152;24.756;2023-12-20T10:28:26;86525.75;;;-144.30;75.62
7180;BME280;3631;42.152;24.756;2023-12-20T10:30:57;86493.94;;;-144.30;74.91
7180;BME280;3631;42.152;24.756;2023-12-20T10:33:33;86482.03;;;-144.30;74.72
7180;BME280;3631;42.152;24.756;2023-12-20T10:36:03;86462.13;;;-144.30;74.24
7180;BME280;3631;42.152;24.756;2023-12-20T10:38:31;86422.38;;;-144.30;73.70
7180;BME280;3631;42.152;24.756;2023-12-20T10:41:01;86438.28;;;-144.30;73.25
7180;BME280;3631;42.152;24.756;2023-12-20T10:43:35;86466.09;;;-144.30;73.35
7180;BME280;3631;42.152;24.756;2023-12-20T10:46:08;86446.22;;;-144.30;73.20
7180;BME280;3631;42.152;24.756;2023-12-20T10:48:36;86428.31;;;-144.30;73.05
7180;BME280;3631;42.152;24.756;2023-12-20T10:51:06;86456.16;;;-144.30;72.39
7180;BME280;3631;42.152;24.756;2023-12-20T10:53:35;86472.06;;;-144.30;72.61
7180;BME280;3631;42.152;24.756;2023-12-20T10:56:12;86486.00;;;-144.30;72.34
7180;BME280;3631;42.152;24.756;2023-12-20T10:58:45;86440.25;;;-144.30;72.27
7180;BME280;3631;42.152;24.756;2023-12-20T11:01:13;86440.25;;;-144.30;71.82
7180;BME280;3631;42.152;24.756;2023-12-20T11:03:48;86466.09;;;-144.30;71.67
7180;BME280;3631;42.152;24.756;2023-12-20T11:06:29;86478.03;;;-144.30;71.63
7180;BME280;3631;42.152;24.756;2023-12-20T11:09:10;86366.69;;;-144.30;72.18
7180;BME280;3631;42.152;24.756;2023-12-20T11:11:51;86412.41;;;-144.30;70.84
7180;BME280;3631;42.152;24.756;2023-12-20T11:14:27;86416.41;;;-144.30;70.29
7180;BME280;3631;42.152;24.756;2023-12-20T11:17:05;86424.34;;;-144.30;70.07
7180;BME280;3631;42.152;24.756;2023-12-20T11:19:36;86334.88;;;-144.30;69.78
7180;BME280;3631;42.152;24.756;2023-12-20T11:22:05;86382.59;;;-144.30;69.10
7180;BME280;3631;42.152;24.756;2023-12-20T11:24:33;86394.53;;;-144.30;68.31
7180;BME280;3631;42.152;24.756;2023-12-20T11:27:03;86378.63;;;-144.30;67.64
7180;BME280;3631;42.152;24.756;2023-12-20T11:29:34;86366.69;;;-144.30;67.04
7180;BME280;3631;42.152;24.756;2023-12-20T11:32:02;86350.78;;;-144.30;67.04
7180;BME280;3631;42.152;24.756;2023-12-20T11:34:32;86352.75;;;-144.30;67.72
7180;BME280;3631;42.152;24.756;2023-12-20T11:37:00;86372.66;;;-144.30;68.50
7180;BME280;3631;42.152;24.756;2023-12-20T11:39:30;86382.59;;;-144.30;68.12
7180;BME280;3631;42.152;24.756;2023-12-20T11:42:04;86318.97;;;-144.30;67.50
7180;BME280;3631;42.152;24.756;2023-12-20T11:44:31;86396.50;;;-144.30;67.96
7180;BME280;3631;42.152;24.756;2023-12-20T11:46:59;86384.59;;;-144.30;68.25
7180;BME280;3631;42.152;24.756;2023-12-20T11:49:26;86338.84;;;-144.30;68.66
7180;BME280;3631;42.152;24.756;2023-12-20T11:51:55;86364.69;;;-144.30;68.18
7180;BME280;3631;42.152;24.756;2023-12-20T11:54:22;86348.78;;;-144.30;68.11
7180;BME280;3631;42.152;24.756;2023-12-20T11:56:50;86330.88;;;-144.30;67.99
7180;BME280;3631;42.152;24.756;2023-12-20T11:59:17;86301.06;;;-144.30;67.42
7180;BME280;3631;42.152;24.756;2023-12-20T12:01:48;86366.69;;;-144.30;67.64
7180;BME280;3631;42.152;24.756;2023-12-20T12:04:16;86378.63;;;-144.30;67.43
7180;BME280;3631;42.152;24.756;2023-12-20T12:06:43;86303.06;;;-144.30;68.48
7180;BME280;3631;42.152;24.756;2023-12-20T12:09:10;86362.72;;;-144.30;68.66
7180;BME280;3631;42.152;24.756;2023-12-20T12:11:37;86334.88;;;-144.30;68.54
7180;BME280;3631;42.152;24.756;2023-12-20T12:14:07;86318.97;;;-144.30;67.91
7180;BME280;3631;42.152;24.756;2023-12-20T12:16:34;86334.88;;;-144.30;67.58
7180;BME280;3631;42.152;24.756;2023-12-20T12:19:01;86314.97;;;-144.30;67.48
7180;BME280;3631;42.152;24.756;2023-12-20T12:21:27;86336.84;;;-144.30;67.72
7180;BME280;3631;42.152;24.756;2023-12-20T12:24:06;86330.88;;;-144.30;68.86
7180;BME280;3631;42.152;24.756;2023-12-20T12:26:33;86334.88;;;-144.30;69.45
7180;BME280;3631;42.152;24.756;2023-12-20T12:29:00;86326.91;;;-144.30;69.36
7180;BME280;3631;42.152;24.756;2023-12-20T12:31:28;86326.91;;;-144.30;70.00
7180;BME280;3631;42.152;24.756;2023-12-20T12:33:55;86366.69;;;-144.30;70.10
7180;BME280;3631;42.152;24.756;2023-12-20T12:36:22;86322.94;;;-144.30;70.46
7180;BME280;3631;42.152;24.756;2023-12-20T12:38:48;86334.88;;;-144.30;70.87
7180;BME280;3631;42.152;24.756;2023-12-20T12:41:15;86342.81;;;-144.30;71.35
7180;BME280;3631;42.152;24.756;2023-12-20T12:43:42;86344.81;;;-144.30;71.62
7180;BME280;3631;42.152;24.756;2023-12-20T12:46:09;86303.06;;;-144.30;71.94
7180;BME280;3631;42.152;24.756;2023-12-20T12:48:41;86346.81;;;-144.30;72.12